createdAt,value
2018-02-09T00:01:43.180Z,-5.40
2018-02-09T00:04:09.624Z,-5.50
2018-02-09T00:06:36.129Z,-5.50
2018-02-09T00:09:02.644Z,-5.40
2018-02-09T00:11:29.292Z,-5.50
2018-02-09T00:13:55.726Z,-5.50
2018-02-09T00:16:22.988Z,-5.50
2018-02-09T00:18:50.464Z,-5.50
2018-02-09T00:21:16.972Z,-5.50
2018-02-09T00:23:43.459Z,-5.50
2018-02-09T00:26:09.920Z,-5.60
2018-02-09T00:28:36.431Z,-5.60
2018-02-09T00:31:02.893Z,-5.60
2018-02-09T00:33:29.340Z,-5.60
2018-02-09T00:35:55.816Z,-5.60
2018-02-09T00:38:22.344Z,-5.60
2018-02-09T00:40:49.672Z,-5.70
2018-02-09T00:43:16.180Z,-5.70
2018-02-09T00:45:42.732Z,-5.80
2018-02-09T00:48:09.249Z,-5.80
2018-02-09T00:50:35.712Z,-5.80
2018-02-09T00:53:02.129Z,-5.80
2018-02-09T00:55:28.613Z,-5.80
2018-02-09T00:57:55.152Z,-5.80
2018-02-09T01:00:21.632Z,-5.80
2018-02-09T01:02:48.865Z,-5.80
2018-02-09T01:05:15.345Z,-5.80
2018-02-09T01:07:41.867Z,-5.70
2018-02-09T01:10:08.382Z,-5.80
2018-02-09T01:12:34.856Z,-5.80
2018-02-09T01:15:01.295Z,-5.80
2018-02-09T01:17:28.554Z,-5.80
2018-02-09T01:19:55.016Z,-5.80
2018-02-09T01:22:21.476Z,-5.70
2018-02-09T01:24:47.948Z,-5.80
2018-02-09T01:27:14.772Z,-5.70
2018-02-09T01:29:42.739Z,-5.70
2018-02-09T01:32:09.200Z,-5.70
2018-02-09T01:34:35.635Z,-5.70
2018-02-09T01:37:02.827Z,-5.70
2018-02-09T01:39:29.348Z,-5.70
2018-02-09T01:41:55.827Z,-5.70
2018-02-09T01:44:22.347Z,-5.60
2018-02-09T01:46:48.832Z,-5.70
2018-02-09T01:49:15.346Z,-5.60
2018-02-09T01:51:41.772Z,-5.70
2018-02-09T01:54:08.276Z,-5.70
2018-02-09T01:56:36.578Z,-5.60
2018-02-09T02:42:44.639Z,-6.80
2018-02-09T02:45:11.116Z,-6.90
2018-02-09T02:47:37.576Z,-6.80
2018-02-09T02:50:04.091Z,-6.60
2018-02-09T02:52:30.644Z,-6.60
2018-02-09T02:54:57.183Z,-6.40
2018-02-09T02:57:24.436Z,-6.30
2018-02-09T02:59:51.686Z,-6.20
2018-02-09T03:02:18.260Z,-6.20
2018-02-09T03:04:45.538Z,-6.10
2018-02-09T03:07:12.035Z,-6.10
2018-02-09T03:09:38.464Z,-6.00
2018-02-09T03:12:04.941Z,-6.00
2018-02-09T03:14:32.416Z,-6.00
2018-02-09T03:16:58.901Z,-6.00
2018-02-09T03:19:25.381Z,-6.00
2018-02-09T03:21:52.076Z,-6.00
2018-02-09T03:24:19.336Z,-6.00
2018-02-09T03:26:45.857Z,-6.10
2018-02-09T03:29:12.313Z,-6.00
2018-02-09T03:31:38.787Z,-6.00
2018-02-09T03:34:05.312Z,-6.00
2018-02-09T03:36:31.764Z,-5.90
2018-02-09T03:38:58.220Z,-5.80
2018-02-09T03:41:24.796Z,-5.90
2018-02-09T03:43:52.020Z,-5.90
2018-02-09T03:46:18.483Z,-5.90
2018-02-09T03:48:45.076Z,-5.90
2018-02-09T03:51:11.465Z,-5.90
2018-02-09T03:53:37.907Z,-5.90
2018-02-09T03:56:04.384Z,-6.00
2018-02-09T03:58:30.946Z,-6.00
2018-02-09T04:00:57.351Z,-6.00
2018-02-09T04:03:24.630Z,-6.00
2018-02-09T04:05:51.055Z,-6.00
2018-02-09T04:08:21.396Z,-6.00
2018-02-09T04:10:48.007Z,-6.00
2018-02-09T04:13:15.228Z,-6.10
2018-02-09T04:15:42.503Z,-6.10
2018-02-09T04:18:08.935Z,-6.10
2018-02-09T04:20:35.423Z,-6.10
2018-02-09T04:23:02.872Z,-6.10
2018-02-09T04:25:29.287Z,-6.20
2018-02-09T04:27:55.770Z,-6.20
2018-02-09T04:30:22.352Z,-6.20
2018-02-09T04:32:49.573Z,-6.20
2018-02-09T04:35:16.064Z,-6.20
2018-02-09T04:37:43.312Z,-6.20
2018-02-09T04:40:10.590Z,-6.10
2018-02-09T04:42:37.808Z,-6.10
2018-02-09T04:45:04.284Z,-6.20
2018-02-09T04:47:30.788Z,-6.10
2018-02-09T04:49:57.276Z,-6.10
2018-02-09T04:52:23.809Z,-6.10
2018-02-09T04:54:50.252Z,-6.10
2018-02-09T04:57:16.726Z,-6.10
2018-02-09T04:59:43.276Z,-6.10
2018-02-09T05:02:10.540Z,-6.10
2018-02-09T05:04:37.805Z,-6.10
2018-02-09T05:07:04.346Z,-6.10
2018-02-09T05:09:30.804Z,-6.00
2018-02-09T05:11:57.321Z,-6.00
2018-02-09T05:14:23.781Z,-6.00
2018-02-09T05:16:50.256Z,-6.00
2018-02-09T05:19:17.500Z,-6.00
2018-02-09T05:21:44.055Z,-6.00
2018-02-09T05:24:10.588Z,-6.00
2018-02-09T05:26:37.068Z,-6.00
2018-02-09T05:29:04.304Z,-5.90
2018-02-09T05:31:30.764Z,-6.00
2018-02-09T05:33:57.293Z,-5.90
2018-02-09T05:36:23.756Z,-6.00
2018-02-09T05:38:50.191Z,-5.90
2018-02-09T05:41:16.687Z,-6.00
2018-02-09T05:43:43.948Z,-5.90
2018-02-09T05:46:10.477Z,-6.00
2018-02-09T05:48:37.716Z,-6.00
2018-02-09T05:51:04.269Z,-6.00
2018-02-09T05:53:30.723Z,-6.00
2018-02-09T05:55:57.215Z,-6.00
2018-02-09T05:58:24.424Z,-6.00
2018-02-09T06:00:51.722Z,-6.00
2018-02-09T06:03:18.285Z,-6.00
2018-02-09T06:05:44.823Z,-5.90
2018-02-09T06:08:11.368Z,-5.90
2018-02-09T06:10:37.924Z,-5.90
2018-02-09T06:13:04.353Z,-5.90
2018-02-09T06:15:30.789Z,-5.90
2018-02-09T06:17:57.269Z,-5.90
2018-02-09T06:20:23.820Z,-5.90
2018-02-09T06:22:50.359Z,-5.90
2018-02-09T06:25:16.859Z,-5.90
2018-02-09T06:27:44.037Z,-5.90
2018-02-09T06:30:10.532Z,-5.90
2018-02-09T06:32:37.020Z,-5.90
2018-02-09T06:35:03.550Z,-5.90
2018-02-09T06:37:30.069Z,-5.90
2018-02-09T06:39:56.606Z,-5.90
2018-02-09T06:42:23.039Z,-6.00
2018-02-09T06:44:49.531Z,-6.00
2018-02-09T06:47:16.072Z,-6.00
2018-02-09T06:49:42.576Z,-6.00
2018-02-09T06:52:09.011Z,-6.10
2018-02-09T06:54:35.464Z,-6.10
2018-02-09T06:57:01.913Z,-6.10
2018-02-09T06:59:28.380Z,-6.10
2018-02-09T07:01:54.808Z,-6.10
2018-02-09T07:04:21.260Z,-6.20
2018-02-09T07:06:47.705Z,-6.10
2018-02-09T07:09:14.163Z,-6.20
2018-02-09T07:11:40.607Z,-6.10
2018-02-09T07:14:07.048Z,-6.10
2018-02-09T07:16:33.509Z,-6.10
2018-02-09T07:19:00.846Z,-6.10
2018-02-09T07:21:27.355Z,-6.10
2018-02-09T07:23:53.782Z,-6.10
2018-02-09T07:26:20.179Z,-6.10
2018-02-09T07:28:46.718Z,-6.10
2018-02-09T07:31:13.904Z,-6.00
2018-02-09T07:33:40.292Z,-6.00
2018-02-09T07:36:07.110Z,-6.00
2018-02-09T07:38:33.507Z,-5.90
2018-02-09T07:41:00.027Z,-6.00
2018-02-09T07:43:26.387Z,-5.90
2018-02-09T07:45:52.824Z,-5.90
2018-02-09T07:48:19.227Z,-5.80
2018-02-09T07:50:45.651Z,-5.70
2018-02-09T07:53:12.820Z,-5.60
2018-02-09T07:55:40.010Z,-5.50
2018-02-09T07:58:06.399Z,-5.50
2018-02-09T08:00:32.813Z,-5.50
2018-02-09T08:02:59.227Z,-5.30
2018-02-09T08:05:26.420Z,-5.20
2018-02-09T08:07:52.808Z,-5.20
2018-02-09T08:10:19.228Z,-5.10
2018-02-09T08:12:45.707Z,-5.00
2018-02-09T08:15:12.092Z,-4.90
2018-02-09T08:17:39.252Z,-4.80
2018-02-09T08:20:05.809Z,-4.80
2018-02-09T08:22:32.268Z,-4.70
2018-02-09T08:24:58.737Z,-4.60
2018-02-09T08:27:25.135Z,-4.50
2018-02-09T08:29:52.251Z,-4.20
2018-02-09T08:32:18.649Z,-4.20
2018-02-09T08:34:45.053Z,-4.10
2018-02-09T08:37:11.447Z,-4.00
2018-02-09T08:39:38.611Z,-3.90
2018-02-09T08:42:05.040Z,-3.90
2018-02-09T08:44:32.223Z,-3.70
2018-02-09T08:46:59.380Z,-3.50
2018-02-09T08:49:26.566Z,-3.40
2018-02-09T08:51:52.940Z,-3.40
2018-02-09T08:54:19.368Z,-3.30
2018-02-09T08:56:45.753Z,-3.20
2018-02-09T08:59:12.159Z,-3.10
2018-02-09T09:01:38.526Z,-3.10
2018-02-09T09:04:04.956Z,-2.90
2018-02-09T09:06:31.349Z,-2.90
2018-02-09T09:08:57.801Z,-2.80
2018-02-09T09:11:24.416Z,-2.70
2018-02-09T09:13:50.831Z,-2.60
2018-02-09T09:16:17.275Z,-2.50
2018-02-09T09:18:43.724Z,-2.40
2018-02-09T09:21:10.115Z,-2.30
2018-02-09T09:23:36.528Z,-2.30
2018-02-09T09:26:02.973Z,-2.20
2018-02-09T09:28:29.391Z,-2.10
2018-02-09T09:30:56.528Z,-1.90
2018-02-09T09:33:22.981Z,-2.00
2018-02-09T09:35:49.368Z,-1.90
2018-02-09T09:38:15.791Z,-1.70
2018-02-09T09:40:42.940Z,-1.70
2018-02-09T09:43:09.328Z,-1.70
2018-02-09T09:45:35.789Z,-1.60
2018-02-09T09:48:02.158Z,-1.50
2018-02-09T09:50:28.584Z,-1.40
2018-02-09T09:52:55.167Z,-1.20
2018-02-09T09:55:21.590Z,-1.10
2018-02-09T09:57:47.999Z,-1.10
2018-02-09T10:00:14.470Z,-1.00
2018-02-09T10:02:40.890Z,-1.00
2018-02-09T10:05:07.314Z,-1.10
2018-02-09T10:07:33.838Z,-1.20
2018-02-09T10:10:00.254Z,-1.10
2018-02-09T10:12:26.667Z,-1.00
2018-02-09T10:14:53.803Z,-0.90
2018-02-09T10:17:20.224Z,-0.90
2018-02-09T10:19:46.693Z,-0.70
2018-02-09T10:22:13.113Z,-0.60
2018-02-09T10:24:39.531Z,-0.50
2018-02-09T10:27:07.380Z,-0.70
2018-02-09T10:29:33.790Z,-0.70
2018-02-09T10:32:00.200Z,-0.80
2018-02-09T10:34:26.627Z,-0.80
2018-02-09T10:36:53.775Z,-0.60
2018-02-09T10:39:20.222Z,-0.60
2018-02-09T10:41:46.680Z,-0.60
2018-02-09T10:44:13.087Z,-0.50
2018-02-09T10:46:39.492Z,-0.60
2018-02-09T10:49:06.655Z,-0.60
2018-02-09T10:51:33.072Z,-0.60
2018-02-09T10:53:59.490Z,-0.50
2018-02-09T10:56:25.871Z,-0.40
2018-02-09T10:58:52.324Z,-0.30
2018-02-09T11:01:25.588Z,-0.30
2018-02-09T11:03:52.041Z,-0.30
2018-02-09T11:06:18.439Z,-0.20
2018-02-09T11:08:45.619Z,0.00
2018-02-09T11:11:17.095Z,0.00
2018-02-09T11:13:43.532Z,0.00
2018-02-09T11:16:09.952Z,0.00
2018-02-09T11:18:37.127Z,0.00
2018-02-09T11:21:04.306Z,0.10
2018-02-09T11:23:30.808Z,0.10
2018-02-09T11:25:57.208Z,0.30
2018-02-09T11:28:23.627Z,0.30
2018-02-09T11:30:50.895Z,0.50
2018-02-09T12:55:15.155Z,5.80
2018-02-09T12:57:41.532Z,5.70
2018-02-09T13:00:07.951Z,5.70
2018-02-09T13:02:34.321Z,6.40
2018-02-09T13:05:00.718Z,6.40
2018-02-09T13:07:27.150Z,6.00
2018-02-09T13:09:54.324Z,6.20
2018-02-09T13:12:32.851Z,6.20
2018-02-09T13:14:59.242Z,5.60
2018-02-09T13:17:25.759Z,5.50
2018-02-09T13:19:52.135Z,5.60
2018-02-09T13:22:32.256Z,6.70
2018-02-09T13:24:58.727Z,6.70
2018-02-09T13:27:25.121Z,6.90
2018-02-09T13:29:51.522Z,7.60
2018-02-09T13:32:30.247Z,7.10
2018-02-09T13:34:56.649Z,6.70
2018-02-09T13:37:32.085Z,6.50
2018-02-09T13:42:31.586Z,5.80
2018-02-09T13:45:11.377Z,5.80
2018-02-09T13:47:37.893Z,5.20
2018-02-09T13:50:04.987Z,5.70
2018-02-09T13:52:31.360Z,5.70
2018-02-09T13:54:57.776Z,6.20
2018-02-09T13:57:24.170Z,6.30
2018-02-09T13:59:50.552Z,5.90
2018-02-09T14:02:17.639Z,6.10
2018-02-09T14:04:44.010Z,6.10
2018-02-09T14:07:10.387Z,6.20
2018-02-09T14:09:37.813Z,6.40
2018-02-09T14:12:04.204Z,6.00
2018-02-09T14:14:31.320Z,5.20
2018-02-09T14:16:57.706Z,5.20
2018-02-09T14:19:24.827Z,4.00
2018-02-09T14:21:51.260Z,3.90
2018-02-09T14:24:17.700Z,3.40
2018-02-09T14:26:44.060Z,3.20
2018-02-09T14:29:10.492Z,3.10
2018-02-09T14:31:36.906Z,3.20
2018-02-09T14:34:04.088Z,3.50
2018-02-09T14:36:30.501Z,3.40
2018-02-09T14:38:56.911Z,3.60
2018-02-09T14:41:23.289Z,3.60
2018-02-09T14:43:50.725Z,3.80
2018-02-09T14:46:17.103Z,4.00
2018-02-09T14:48:44.265Z,4.70
2018-02-09T14:51:10.676Z,4.60
2018-02-09T14:53:37.072Z,4.90
2018-02-09T14:56:04.213Z,4.80
2018-02-09T14:58:30.624Z,4.80
2018-02-09T15:00:56.974Z,4.60
2018-02-09T15:03:23.405Z,4.60
2018-02-09T15:05:49.811Z,4.30
2018-02-09T15:08:16.204Z,4.20
2018-02-09T15:10:42.579Z,3.90
2018-02-09T15:13:09.028Z,4.00
2018-02-09T15:15:35.412Z,3.90
2018-02-09T15:18:02.580Z,4.10
2018-02-09T15:20:29.706Z,4.00
2018-02-09T15:22:56.834Z,3.90
2018-02-09T15:25:23.259Z,3.90
2018-02-09T15:27:50.369Z,3.90
2018-02-09T15:30:16.785Z,3.80
2018-02-09T15:32:43.200Z,3.90
2018-02-09T15:35:10.365Z,3.60
2018-02-09T15:37:36.770Z,3.60
2018-02-09T15:40:03.234Z,3.40
2018-02-09T15:42:29.624Z,3.30
2018-02-09T15:44:56.785Z,3.10
2018-02-09T15:47:23.920Z,2.90
2018-02-09T15:49:50.344Z,2.80
2018-02-09T15:52:16.736Z,2.60
2018-02-09T15:54:43.927Z,2.40
2018-02-09T15:57:10.337Z,2.40
2018-02-09T15:59:36.830Z,2.20
2018-02-09T16:02:03.203Z,2.00
2018-02-09T16:04:29.771Z,1.70
2018-02-09T16:06:56.931Z,1.30
2018-02-09T16:09:23.360Z,1.30
2018-02-09T16:11:49.754Z,1.20
2018-02-09T16:14:16.922Z,1.00
2018-02-09T16:16:44.048Z,1.00
2018-02-09T16:19:10.441Z,1.00
2018-02-09T16:21:36.868Z,0.80
2018-02-09T16:24:03.294Z,0.70
2018-02-09T16:26:29.755Z,0.60
2018-02-09T16:28:56.176Z,0.60
2018-02-09T16:31:22.570Z,0.60
2018-02-09T16:33:48.973Z,0.50
2018-02-09T16:36:15.374Z,0.40
2018-02-09T16:38:41.794Z,0.30
2018-02-09T16:41:08.232Z,0.20
2018-02-09T16:43:35.406Z,0.20
2018-02-09T16:46:02.547Z,0.20
2018-02-09T16:48:28.940Z,0.20
2018-02-09T16:50:55.370Z,0.10
2018-02-09T16:53:21.810Z,0.00
2018-02-09T16:55:48.965Z,0.00
2018-02-09T16:58:16.110Z,0.00
2018-02-09T17:00:42.540Z,-0.10
2018-02-09T17:03:08.988Z,0.00
2018-02-09T17:05:35.412Z,-0.10
2018-02-09T17:08:01.823Z,-0.10
2018-02-09T17:10:28.948Z,-0.10
2018-02-09T17:12:55.402Z,-0.10
2018-02-09T17:15:22.608Z,-0.20
2018-02-09T17:17:49.138Z,-0.20
2018-02-09T17:20:16.310Z,-0.20
2018-02-09T17:22:43.506Z,-0.30
2018-02-09T17:25:09.999Z,-0.30
2018-02-09T17:27:36.476Z,-0.30
2018-02-09T17:30:03.839Z,-0.40
2018-02-09T17:32:30.731Z,-0.40
2018-02-09T17:34:57.138Z,-0.50
2018-02-09T17:37:24.273Z,-0.50
2018-02-09T17:39:50.691Z,-0.50
2018-02-09T17:42:17.084Z,-0.60
2018-02-09T17:44:43.514Z,-0.60
2018-02-09T17:47:09.953Z,-0.70
2018-02-09T17:49:36.379Z,-0.70
2018-02-09T17:52:02.771Z,-0.80
2018-02-09T17:54:29.187Z,-0.90
2018-02-09T17:56:56.345Z,-0.90
2018-02-09T17:59:22.745Z,-0.90
2018-02-09T18:01:49.902Z,-1.00
2018-02-09T18:04:16.552Z,-1.00
2018-02-09T18:06:43.678Z,-1.10
2018-02-09T18:09:10.079Z,-1.10
2018-02-09T18:11:36.600Z,-1.10
2018-02-09T18:14:03.007Z,-1.20
2018-02-09T18:16:29.468Z,-1.20
2018-02-09T19:30:27.242Z,-1.30
2018-02-09T19:32:53.722Z,-3.50
2018-02-09T19:35:21.991Z,-3.30
2018-02-09T19:37:48.420Z,-3.30
2018-02-09T19:40:14.928Z,-3.20
2018-02-09T19:42:42.401Z,-3.10
2018-02-09T19:45:09.758Z,-3.00
2018-02-09T19:47:36.928Z,-2.90
2018-02-09T19:50:04.107Z,-2.90
2018-02-09T19:52:30.688Z,-2.90
2018-02-09T19:54:57.148Z,-2.80
2018-02-09T19:57:23.603Z,-2.80
2018-02-09T19:59:50.064Z,-2.80
2018-02-09T20:02:16.536Z,-2.70
2018-02-09T20:04:43.708Z,-2.70
2018-02-09T20:07:10.170Z,-2.70
2018-02-09T20:09:36.647Z,-2.70
2018-02-09T20:12:03.118Z,-2.80
2018-02-09T20:14:29.589Z,-2.70
2018-02-09T20:16:56.070Z,-2.70
2018-02-09T20:19:22.559Z,-2.80
2018-02-09T20:21:48.988Z,-2.80
2018-02-09T20:24:15.444Z,-2.80
2018-02-09T20:26:41.937Z,-2.80
2018-02-09T20:29:09.488Z,-2.90
2018-02-09T20:31:36.686Z,-2.90
2018-02-09T20:34:03.088Z,-3.00
2018-02-09T20:36:29.556Z,-2.90
2018-02-09T20:38:56.800Z,-3.00
2018-02-09T20:41:23.292Z,-3.00
2018-02-09T20:43:49.909Z,-3.00
2018-02-09T20:46:16.369Z,-3.10
2018-02-09T20:48:43.535Z,-3.20
2018-02-09T20:51:10.757Z,-3.20
2018-02-09T20:53:38.462Z,-3.20
2018-02-09T20:56:04.908Z,-3.20
2018-02-09T20:58:31.376Z,-3.30
2018-02-09T21:00:58.204Z,-3.30
2018-02-09T21:03:24.707Z,-3.30
2018-02-09T21:05:51.139Z,-3.30
2018-02-09T21:08:17.623Z,-3.30
2018-02-09T21:10:44.470Z,-3.30
2018-02-09T21:13:11.494Z,-3.30
2018-02-09T21:15:37.984Z,-3.30
2018-02-09T21:18:04.390Z,-3.30
2018-02-09T21:20:31.709Z,-3.30
2018-02-09T21:22:58.240Z,-3.30
2018-02-09T21:25:24.674Z,-3.30
2018-02-09T21:27:51.138Z,-3.30
2018-02-09T21:30:17.578Z,-3.30
2018-02-09T21:32:44.056Z,-3.30
2018-02-09T21:35:10.535Z,-3.30
2018-02-09T21:37:37.761Z,-3.40
2018-02-09T21:40:04.249Z,-3.40
2018-02-09T21:42:31.823Z,-3.40
2018-02-09T21:44:58.270Z,-3.40
2018-02-09T21:47:24.732Z,-3.50
2018-02-09T21:49:51.876Z,-3.40
2018-02-09T21:52:19.115Z,-3.40
2018-02-09T21:54:45.623Z,-3.40
2018-02-09T21:57:12.086Z,-3.40
2018-02-09T21:59:38.533Z,-3.40
2018-02-09T22:02:04.957Z,-3.40
2018-02-09T22:04:31.511Z,-3.50
2018-02-09T22:06:58.022Z,-3.50
2018-02-09T22:09:24.444Z,-3.50
2018-02-09T22:11:50.911Z,-3.50
2018-02-09T22:14:17.388Z,-3.50
2018-02-09T22:16:44.575Z,-3.50
2018-02-09T22:19:11.016Z,-3.60
2018-02-09T22:21:37.467Z,-3.60
2018-02-09T22:24:04.640Z,-3.60
2018-02-09T22:26:31.137Z,-3.60
2018-02-09T22:28:57.584Z,-3.60
2018-02-09T22:31:24.802Z,-3.60
2018-02-09T22:33:51.239Z,-3.70
2018-02-09T22:36:18.692Z,-3.70
2018-02-09T22:38:45.839Z,-3.70
2018-02-09T22:41:12.316Z,-3.70
2018-02-09T22:43:38.797Z,-3.70
2018-02-09T22:46:06.033Z,-3.80
2018-02-09T22:48:32.540Z,-3.80
2018-02-09T22:50:59.021Z,-3.80
2018-02-09T22:53:25.488Z,-3.90
2018-02-09T23:39:32.015Z,-3.90
2018-02-09T23:41:58.465Z,-5.40
2018-02-09T23:44:25.004Z,-5.40
2018-02-09T23:46:51.468Z,-5.30
2018-02-09T23:49:17.954Z,-5.30
2018-02-09T23:51:44.484Z,-5.20
2018-02-09T23:54:10.964Z,-5.10
2018-02-09T23:56:38.192Z,-5.00
2018-02-09T23:59:04.693Z,-5.00
